sensor_id;sensor_type;location;lat;lon;timestamp;temperature;humidity
44277;DHT22;29973;43.742;1.236;2023-07-20T00:00:34;18.10;99.90
44277;DHT22;29973;43.742;1.236;2023-07-20T00:03:13;18.20;99.90
44277;DHT22;29973;43.742;1.236;2023-07-20T00:05:45;18.10;99.90
44277;DHT22;29973;43.742;1.236;2023-07-20T00:08:11;18.10;99.90
44277;DHT22;29973;43.742;1.236;2023-07-20T00:10:37;18.00;99.90
44277;DHT22;29973;43.742;1.236;2023-07-20T00:13:03;18.10;99.90
44277;DHT22;29973;43.742;1.236;2023-07-20T00:15:28;18.20;99.90
44277;DHT22;29973;43.742;1.236;2023-07-20T00:17:54;18.30;99.90
44277;DHT22;29973;43.742;1.236;2023-07-20T00:20:20;18.40;99.90
44277;DHT22;29973;43.742;1.236;2023-07-20T00:22:45;18.30;99.90
44277;DHT22;29973;43.742;1.236;2023-07-20T00:25:11;18.20;99.90
44277;DHT22;29973;43.742;1.236;2023-07-20T00:27:37;18.20;99.90
44277;DHT22;29973;43.742;1.236;2023-07-20T00:30:04;18.20;99.90
44277;DHT22;29973;43.742;1.236;2023-07-20T00:32:30;18.20;99.90
44277;DHT22;29973;43.742;1.236;2023-07-20T00:34:56;18.20;99.90
44277;DHT22;29973;43.742;1.236;2023-07-20T00:37:21;18.20;99.90
44277;DHT22;29973;43.742;1.236;2023-07-20T00:39:47;18.10;99.90
44277;DHT22;29973;43.742;1.236;2023-07-20T00:42:13;18.20;99.90
44277;DHT22;29973;43.742;1.236;2023-07-20T00:44:40;18.10;99.90
44277;DHT22;29973;43.742;1.236;2023-07-20T00:47:07;18.10;99.90
44277;DHT22;29973;43.742;1.236;2023-07-20T00:49:33;18.10;99.90
44277;DHT22;29973;43.742;1.236;2023-07-20T00:52:00;18.00;99.90
44277;DHT22;29973;43.742;1.236;2023-07-20T00:54:27;18.00;99.90
44277;DHT22;29973;43.742;1.236;2023-07-20T00:56:53;17.90;99.90
44277;DHT22;29973;43.742;1.236;2023-07-20T00:59:20;17.70;99.90
44277;DHT22;29973;43.742;1.236;2023-07-20T01:01:46;17.70;99.90
44277;DHT22;29973;43.742;1.236;2023-07-20T01:04:13;17.70;99.90
44277;DHT22;29973;43.742;1.236;2023-07-20T01:11:48;17.60;99.90
44277;DHT22;29973;43.742;1.236;2023-07-20T01:14:15;17.60;99.90
44277;DHT22;29973;43.742;1.236;2023-07-20T01:16:42;17.50;99.90
44277;DHT22;29973;43.742;1.236;2023-07-20T01:19:08;17.40;99.90
44277;DHT22;29973;43.742;1.236;2023-07-20T01:33:02;17.20;99.90
44277;DHT22;29973;43.742;1.236;2023-07-20T01:35:30;16.90;99.90
44277;DHT22;29973;43.742;1.236;2023-07-20T01:37:56;16.80;99.90
44277;DHT22;29973;43.742;1.236;2023-07-20T01:40:25;16.70;99.90
44277;DHT22;29973;43.742;1.236;2023-07-20T01:42:51;16.70;99.90
44277;DHT22;29973;43.742;1.236;2023-07-20T01:45:17;16.60;99.90
44277;DHT22;29973;43.742;1.236;2023-07-20T01:47:43;16.50;99.90
44277;DHT22;29973;43.742;1.236;2023-07-20T01:50:09;16.50;99.90
44277;DHT22;29973;43.742;1.236;2023-07-20T01:52:35;16.60;99.90
44277;DHT22;29973;43.742;1.236;2023-07-20T01:55:01;16.30;99.90
44277;DHT22;29973;43.742;1.236;2023-07-20T01:57:27;16.30;99.90
44277;DHT22;29973;43.742;1.236;2023-07-20T01:59:52;16.20;99.90
44277;DHT22;29973;43.742;1.236;2023-07-20T02:02:18;16.30;99.90
44277;DHT22;29973;43.742;1.236;2023-07-20T02:04:46;16.20;99.90
44277;DHT22;29973;43.742;1.236;2023-07-20T02:07:11;16.10;99.90
44277;DHT22;29973;43.742;1.236;2023-07-20T02:09:37;16.10;99.90
44277;DHT22;29973;43.742;1.236;2023-07-20T02:12:03;16.00;99.90
44277;DHT22;29973;43.742;1.236;2023-07-20T02:14:29;16.10;99.90
44277;DHT22;29973;43.742;1.236;2023-07-20T02:16:54;16.20;99.90
44277;DHT22;29973;43.742;1.236;2023-07-20T02:19:25;16.20;99.90
44277;DHT22;29973;43.742;1.236;2023-07-20T02:21:52;16.20;99.90
44277;DHT22;29973;43.742;1.236;2023-07-20T02:24:17;16.10;99.90
44277;DHT22;29973;43.742;1.236;2023-07-20T02:26:43;16.10;99.90
44277;DHT22;29973;43.742;1.236;2023-07-20T02:29:09;16.10;99.90
44277;DHT22;29973;43.742;1.236;2023-07-20T02:31:37;16.00;99.90
44277;DHT22;29973;43.742;1.236;2023-07-20T02:34:05;15.80;99.90
44277;DHT22;29973;43.742;1.236;2023-07-20T02:36:31;15.90;99.90
44277;DHT22;29973;43.742;1.236;2023-07-20T02:38:58;15.90;99.90
44277;DHT22;29973;43.742;1.236;2023-07-20T02:41:24;15.90;99.90
44277;DHT22;29973;43.742;1.236;2023-07-20T02:43:50;15.80;99.90
44277;DHT22;29973;43.742;1.236;2023-07-20T02:46:16;15.90;99.90
44277;DHT22;29973;43.742;1.236;2023-07-20T02:48:43;15.80;99.90
44277;DHT22;29973;43.742;1.236;2023-07-20T02:51:08;15.80;99.90
44277;DHT22;29973;43.742;1.236;2023-07-20T02:53:34;15.80;99.90
44277;DHT22;29973;43.742;1.236;2023-07-20T02:56:00;15.70;99.90
44277;DHT22;29973;43.742;1.236;2023-07-20T02:58:26;15.70;99.90
44277;DHT22;29973;43.742;1.236;2023-07-20T03:00:51;15.60;99.90
44277;DHT22;29973;43.742;1.236;2023-07-20T03:03:17;15.50;99.90
44277;DHT22;29973;43.742;1.236;2023-07-20T03:05:43;15.50;99.90
44277;DHT22;29973;43.742;1.236;2023-07-20T03:08:09;15.40;99.90
44277;DHT22;29973;43.742;1.236;2023-07-20T03:10:41;15.40;99.90
44277;DHT22;29973;43.742;1.236;2023-07-20T03:13:06;15.30;99.90
44277;DHT22;29973;43.742;1.236;2023-07-20T03:15:33;15.40;99.90
44277;DHT22;29973;43.742;1.236;2023-07-20T03:17:59;15.40;99.90
44277;DHT22;29973;43.742;1.236;2023-07-20T03:20:25;15.40;99.90
44277;DHT22;29973;43.742;1.236;2023-07-20T03:22:51;15.50;99.90
44277;DHT22;29973;43.742;1.236;2023-07-20T03:25:17;15.30;99.90
44277;DHT22;29973;43.742;1.236;2023-07-20T03:27:43;15.20;99.90
44277;DHT22;29973;43.742;1.236;2023-07-20T03:30:09;15.30;99.90
44277;DHT22;29973;43.742;1.236;2023-07-20T03:32:35;15.30;99.90
44277;DHT22;29973;43.742;1.236;2023-07-20T03:35:01;15.30;99.90
44277;DHT22;29973;43.742;1.236;2023-07-20T03:37:27;15.20;99.90
44277;DHT22;29973;43.742;1.236;2023-07-20T03:39:53;15.20;99.90
44277;DHT22;29973;43.742;1.236;2023-07-20T03:42:18;15.20;99.90
44277;DHT22;29973;43.742;1.236;2023-07-20T03:44:44;15.10;99.90
44277;DHT22;29973;43.742;1.236;2023-07-20T03:47:10;15.10;99.90
44277;DHT22;29973;43.742;1.236;2023-07-20T03:49:36;15.00;99.90
44277;DHT22;29973;43.742;1.236;2023-07-20T03:52:02;14.90;99.90
44277;DHT22;29973;43.742;1.236;2023-07-20T03:54:29;14.80;99.90
44277;DHT22;29973;43.742;1.236;2023-07-20T03:56:54;14.90;99.90
44277;DHT22;29973;43.742;1.236;2023-07-20T03:59:20;14.90;99.90
44277;DHT22;29973;43.742;1.236;2023-07-20T04:01:46;15.00;99.90
44277;DHT22;29973;43.742;1.236;2023-07-20T04:04:15;14.90;99.90
44277;DHT22;29973;43.742;1.236;2023-07-20T04:06:41;15.00;99.90
44277;DHT22;29973;43.742;1.236;2023-07-20T04:09:10;15.00;99.90
44277;DHT22;29973;43.742;1.236;2023-07-20T04:11:36;14.80;99.90
44277;DHT22;29973;43.742;1.236;2023-07-20T04:14:02;14.80;99.90
44277;DHT22;29973;43.742;1.236;2023-07-20T04:16:27;14.90;99.90
44277;DHT22;29973;43.742;1.236;2023-07-20T04:18:57;15.00;99.90
44277;DHT22;29973;43.742;1.236;2023-07-20T04:21:23;15.00;99.90
44277;DHT22;29973;43.742;1.236;2023-07-20T04:23:49;15.00;99.90
44277;DHT22;29973;43.742;1.236;2023-07-20T04:26:14;14.90;99.90
44277;DHT22;29973;43.742;1.236;2023-07-20T04:28:41;14.80;99.90
44277;DHT22;29973;43.742;1.236;2023-07-20T04:31:15;14.90;99.90
44277;DHT22;29973;43.742;1.236;2023-07-20T04:33:41;14.70;99.90
44277;DHT22;29973;43.742;1.236;2023-07-20T04:36:07;14.70;99.90
44277;DHT22;29973;43.742;1.236;2023-07-20T04:38:33;14.70;99.90
44277;DHT22;29973;43.742;1.236;2023-07-20T04:40:59;14.70;99.90
44277;DHT22;29973;43.742;1.236;2023-07-20T04:43:25;14.80;99.90
44277;DHT22;29973;43.742;1.236;2023-07-20T04:45:51;14.90;99.90
44277;DHT22;29973;43.742;1.236;2023-07-20T04:48:17;15.00;99.90
44277;DHT22;29973;43.742;1.236;2023-07-20T04:50:44;15.00;99.90
44277;DHT22;29973;43.742;1.236;2023-07-20T04:53:11;15.10;99.90
44277;DHT22;29973;43.742;1.236;2023-07-20T04:55:40;15.00;99.90
44277;DHT22;29973;43.742;1.236;2023-07-20T04:58:07;15.10;99.90
44277;DHT22;29973;43.742;1.236;2023-07-20T05:00:33;15.10;99.90
44277;DHT22;29973;43.742;1.236;2023-07-20T05:02:59;15.10;99.90
44277;DHT22;29973;43.742;1.236;2023-07-20T05:05:25;15.20;99.90
44277;DHT22;29973;43.742;1.236;2023-07-20T05:07:50;15.20;99.90
44277;DHT22;29973;43.742;1.236;2023-07-20T05:10:17;15.20;99.90
44277;DHT22;29973;43.742;1.236;2023-07-20T05:12:43;15.20;99.90
44277;DHT22;29973;43.742;1.236;2023-07-20T05:15:09;15.20;99.90
44277;DHT22;29973;43.742;1.236;2023-07-20T05:17:35;15.40;99.90
44277;DHT22;29973;43.742;1.236;2023-07-20T05:20:01;15.50;99.90
44277;DHT22;29973;43.742;1.236;2023-07-20T05:22:26;15.60;99.90
44277;DHT22;29973;43.742;1.236;2023-07-20T05:24:52;15.60;99.90
44277;DHT22;29973;43.742;1.236;2023-07-20T05:27:18;15.70;99.90
44277;DHT22;29973;43.742;1.236;2023-07-20T05:29:45;15.80;99.90
44277;DHT22;29973;43.742;1.236;2023-07-20T05:32:11;16.00;99.90
44277;DHT22;29973;43.742;1.236;2023-07-20T05:34:37;16.10;99.90
44277;DHT22;29973;43.742;1.236;2023-07-20T05:37:02;16.20;99.90
44277;DHT22;29973;43.742;1.236;2023-07-20T05:39:28;16.30;99.90
44277;DHT22;29973;43.742;1.236;2023-07-20T05:41:54;16.20;99.90
44277;DHT22;29973;43.742;1.236;2023-07-20T05:44:19;16.40;99.90
44277;DHT22;29973;43.742;1.236;2023-07-20T05:46:45;16.50;99.90
44277;DHT22;29973;43.742;1.236;2023-07-20T05:49:11;16.60;99.90
44277;DHT22;29973;43.742;1.236;2023-07-20T05:51:37;16.60;99.90
44277;DHT22;29973;43.742;1.236;2023-07-20T05:54:02;16.60;99.90
44277;DHT22;29973;43.742;1.236;2023-07-20T05:56:28;16.90;99.90
44277;DHT22;29973;43.742;1.236;2023-07-20T05:58:54;17.10;99.90
44277;DHT22;29973;43.742;1.236;2023-07-20T06:01:19;17.30;99.90
44277;DHT22;29973;43.742;1.236;2023-07-20T06:03:45;17.30;99.90
44277;DHT22;29973;43.742;1.236;2023-07-20T06:06:11;17.30;99.90
44277;DHT22;29973;43.742;1.236;2023-07-20T06:08:38;17.50;99.90
44277;DHT22;29973;43.742;1.236;2023-07-20T06:11:04;17.70;99.90
44277;DHT22;29973;43.742;1.236;2023-07-20T06:13:30;17.90;99.90
44277;DHT22;29973;43.742;1.236;2023-07-20T06:15:55;18.00;99.90
44277;DHT22;29973;43.742;1.236;2023-07-20T06:18:23;18.10;99.90
44277;DHT22;29973;43.742;1.236;2023-07-20T06:20:50;18.20;99.90
44277;DHT22;29973;43.742;1.236;2023-07-20T06:23:17;18.40;99.90
44277;DHT22;29973;43.742;1.236;2023-07-20T06:25:42;18.50;99.90
44277;DHT22;29973;43.742;1.236;2023-07-20T06:28:08;18.70;99.90
44277;DHT22;29973;43.742;1.236;2023-07-20T06:30:34;18.70;99.90
44277;DHT22;29973;43.742;1.236;2023-07-20T06:33:02;18.80;99.90
44277;DHT22;29973;43.742;1.236;2023-07-20T06:35:28;18.90;99.90
44277;DHT22;29973;43.742;1.236;2023-07-20T06:37:54;18.90;99.90
44277;DHT22;29973;43.742;1.236;2023-07-20T06:40:25;19.00;99.90
44277;DHT22;29973;43.742;1.236;2023-07-20T06:42:50;19.10;99.90
44277;DHT22;29973;43.742;1.236;2023-07-20T06:45:16;19.20;99.90
44277;DHT22;29973;43.742;1.236;2023-07-20T06:47:42;19.40;99.90
44277;DHT22;29973;43.742;1.236;2023-07-20T06:50:08;19.40;99.90
44277;DHT22;29973;43.742;1.236;2023-07-20T06:52:35;19.40;99.90
44277;DHT22;29973;43.742;1.236;2023-07-20T06:55:01;19.50;99.90
44277;DHT22;29973;43.742;1.236;2023-07-20T06:57:26;19.60;99.90
44277;DHT22;29973;43.742;1.236;2023-07-20T06:59:52;19.80;99.90
44277;DHT22;29973;43.742;1.236;2023-07-20T07:02:19;19.90;99.90
44277;DHT22;29973;43.742;1.236;2023-07-20T07:04:45;19.90;99.90
44277;DHT22;29973;43.742;1.236;2023-07-20T07:07:14;20.00;99.90
44277;DHT22;29973;43.742;1.236;2023-07-20T07:09:40;20.10;99.90
44277;DHT22;29973;43.742;1.236;2023-07-20T07:12:06;20.30;99.90
44277;DHT22;29973;43.742;1.236;2023-07-20T07:14:32;20.30;99.90
44277;DHT22;29973;43.742;1.236;2023-07-20T07:16:58;20.40;99.90
44277;DHT22;29973;43.742;1.236;2023-07-20T07:19:24;20.70;99.90
44277;DHT22;29973;43.742;1.236;2023-07-20T07:21:50;20.80;99.90
44277;DHT22;29973;43.742;1.236;2023-07-20T07:24:16;20.70;99.90
44277;DHT22;29973;43.742;1.236;2023-07-20T07:26:42;20.80;99.90
44277;DHT22;29973;43.742;1.236;2023-07-20T07:29:07;21.00;99.90
44277;DHT22;29973;43.742;1.236;2023-07-20T07:31:34;21.00;99.90
44277;DHT22;29973;43.742;1.236;2023-07-20T07:34:02;21.00;99.90
44277;DHT22;29973;43.742;1.236;2023-07-20T07:36:27;21.30;99.90
44277;DHT22;29973;43.742;1.236;2023-07-20T07:38:53;21.20;99.90
44277;DHT22;29973;43.742;1.236;2023-07-20T07:41:19;21.50;99.90
44277;DHT22;29973;43.742;1.236;2023-07-20T07:43:46;21.70;99.90
44277;DHT22;29973;43.742;1.236;2023-07-20T07:46:11;21.80;99.90
44277;DHT22;29973;43.742;1.236;2023-07-20T07:48:37;21.90;99.90
44277;DHT22;29973;43.742;1.236;2023-07-20T07:51:03;21.90;99.90
44277;DHT22;29973;43.742;1.236;2023-07-20T07:53:29;22.00;99.90
44277;DHT22;29973;43.742;1.236;2023-07-20T07:55:54;22.00;99.90
44277;DHT22;29973;43.742;1.236;2023-07-20T07:58:21;22.10;99.90
44277;DHT22;29973;43.742;1.236;2023-07-20T08:00:47;22.10;99.90
44277;DHT22;29973;43.742;1.236;2023-07-20T08:03:13;22.40;99.90
44277;DHT22;29973;43.742;1.236;2023-07-20T08:05:39;22.60;99.90
44277;DHT22;29973;43.742;1.236;2023-07-20T08:08:05;22.90;99.90
44277;DHT22;29973;43.742;1.236;2023-07-20T08:10:31;22.70;99.90
44277;DHT22;29973;43.742;1.236;2023-07-20T08:12:56;22.50;99.90
44277;DHT22;29973;43.742;1.236;2023-07-20T08:15:22;22.40;99.90
44277;DHT22;29973;43.742;1.236;2023-07-20T08:17:48;22.60;99.90
44277;DHT22;29973;43.742;1.236;2023-07-20T08:20:17;22.70;99.90
44277;DHT22;29973;43.742;1.236;2023-07-20T08:22:43;22.80;99.90
44277;DHT22;29973;43.742;1.236;2023-07-20T08:25:09;23.00;99.90
44277;DHT22;29973;43.742;1.236;2023-07-20T08:27:35;23.40;99.90
44277;DHT22;29973;43.742;1.236;2023-07-20T08:30:02;23.40;99.90
44277;DHT22;29973;43.742;1.236;2023-07-20T08:32:28;23.50;99.90
44277;DHT22;29973;43.742;1.236;2023-07-20T08:34:53;23.60;99.90
44277;DHT22;29973;43.742;1.236;2023-07-20T08:37:19;23.80;99.90
44277;DHT22;29973;43.742;1.236;2023-07-20T08:39:45;23.80;99.90
44277;DHT22;29973;43.742;1.236;2023-07-20T08:42:12;23.80;99.90
44277;DHT22;29973;43.742;1.236;2023-07-20T08:44:41;23.70;99.90
44277;DHT22;29973;43.742;1.236;2023-07-20T08:47:09;24.20;99.90
44277;DHT22;29973;43.742;1.236;2023-07-20T08:49:36;24.50;99.90
44277;DHT22;29973;43.742;1.236;2023-07-20T08:52:04;24.20;99.90
44277;DHT22;29973;43.742;1.236;2023-07-20T08:54:31;24.60;99.90
44277;DHT22;29973;43.742;1.236;2023-07-20T08:57:04;24.80;99.90
44277;DHT22;29973;43.742;1.236;2023-07-20T08:59:31;24.70;99.00
44277;DHT22;29973;43.742;1.236;2023-07-20T09:01:58;23.90;99.90
44277;DHT22;29973;43.742;1.236;2023-07-20T09:04:26;23.60;99.70
44277;DHT22;29973;43.742;1.236;2023-07-20T09:06:53;23.60;99.90
44277;DHT22;29973;43.742;1.236;2023-07-20T09:09:19;23.80;99.70
44277;DHT22;29973;43.742;1.236;2023-07-20T09:11:49;24.30;99.90
44277;DHT22;29973;43.742;1.236;2023-07-20T09:14:15;24.30;99.10
44277;DHT22;29973;43.742;1.236;2023-07-20T09:17:00;23.90;96.80
44277;DHT22;29973;43.742;1.236;2023-07-20T09:19:26;23.60;96.40
44277;DHT22;29973;43.742;1.236;2023-07-20T09:21:52;23.60;95.90
44277;DHT22;29973;43.742;1.236;2023-07-20T09:24:20;24.10;96.70
44277;DHT22;29973;43.742;1.236;2023-07-20T09:26:48;24.70;95.70
44277;DHT22;29973;43.742;1.236;2023-07-20T09:29:16;25.30;94.40
44277;DHT22;29973;43.742;1.236;2023-07-20T09:32:04;25.40;92.00
44277;DHT22;29973;43.742;1.236;2023-07-20T09:34:31;25.30;91.60
44277;DHT22;29973;43.742;1.236;2023-07-20T09:36:58;24.60;93.10
44277;DHT22;29973;43.742;1.236;2023-07-20T09:39:24;24.80;91.90
44277;DHT22;29973;43.742;1.236;2023-07-20T09:41:51;25.30;92.60
44277;DHT22;29973;43.742;1.236;2023-07-20T09:44:17;25.80;91.90
44277;DHT22;29973;43.742;1.236;2023-07-20T09:46:49;26.60;90.60
44277;DHT22;29973;43.742;1.236;2023-07-20T09:49:17;26.40;86.90
44277;DHT22;29973;43.742;1.236;2023-07-20T09:51:45;26.40;91.10
44277;DHT22;29973;43.742;1.236;2023-07-20T09:54:13;26.50;90.00
44277;DHT22;29973;43.742;1.236;2023-07-20T09:56:40;26.50;88.50
44277;DHT22;29973;43.742;1.236;2023-07-20T09:59:07;26.70;89.40
44277;DHT22;29973;43.742;1.236;2023-07-20T10:01:36;26.20;83.30
44277;DHT22;29973;43.742;1.236;2023-07-20T10:04:04;26.60;89.30
44277;DHT22;29973;43.742;1.236;2023-07-20T10:06:33;27.00;89.60
44277;DHT22;29973;43.742;1.236;2023-07-20T10:09:03;25.90;88.30
44277;DHT22;29973;43.742;1.236;2023-07-20T10:11:36;26.00;87.20
44277;DHT22;29973;43.742;1.236;2023-07-20T10:14:08;26.40;89.00
44277;DHT22;29973;43.742;1.236;2023-07-20T10:16:41;26.70;83.30
44277;DHT22;29973;43.742;1.236;2023-07-20T10:24:39;27.20;83.10
44277;DHT22;29973;43.742;1.236;2023-07-20T10:27:05;27.20;79.00
44277;DHT22;29973;43.742;1.236;2023-07-20T10:29:31;26.80;78.20
44277;DHT22;29973;43.742;1.236;2023-07-20T10:31:57;26.30;80.20
44277;DHT22;29973;43.742;1.236;2023-07-20T10:34:23;26.50;82.10
44277;DHT22;29973;43.742;1.236;2023-07-20T10:36:49;26.90;79.50
44277;DHT22;29973;43.742;1.236;2023-07-20T10:39:27;26.70;78.60
44277;DHT22;29973;43.742;1.236;2023-07-20T10:42:02;27.20;78.50
44277;DHT22;29973;43.742;1.236;2023-07-20T10:44:29;27.30;76.80
44277;DHT22;29973;43.742;1.236;2023-07-20T10:47:03;27.50;75.30
44277;DHT22;29973;43.742;1.236;2023-07-20T10:49:34;27.30;77.10
44277;DHT22;29973;43.742;1.236;2023-07-20T10:52:04;27.80;82.10
44277;DHT22;29973;43.742;1.236;2023-07-20T10:56:57;28.30;76.10
44277;DHT22;29973;43.742;1.236;2023-07-20T11:06:56;28.30;70.80
44277;DHT22;29973;43.742;1.236;2023-07-20T11:09:23;28.20;72.50
44277;DHT22;29973;43.742;1.236;2023-07-20T11:12:13;27.30;72.50
44277;DHT22;29973;43.742;1.236;2023-07-20T11:14:42;28.00;80.10
44277;DHT22;29973;43.742;1.236;2023-07-20T11:17:15;27.80;68.40
44277;DHT22;29973;43.742;1.236;2023-07-20T11:19:41;28.10;69.60
44277;DHT22;29973;43.742;1.236;2023-07-20T11:22:07;28.50;69.30
44277;DHT22;29973;43.742;1.236;2023-07-20T11:24:40;28.60;69.20
44277;DHT22;29973;43.742;1.236;2023-07-20T11:27:07;28.70;67.80
44277;DHT22;29973;43.742;1.236;2023-07-20T11:29:37;28.90;66.30
44277;DHT22;29973;43.742;1.236;2023-07-20T11:34:34;28.30;66.70
44277;DHT22;29973;43.742;1.236;2023-07-20T11:37:03;27.30;70.60
44277;DHT22;29973;43.742;1.236;2023-07-20T11:39:34;28.40;68.90
44277;DHT22;29973;43.742;1.236;2023-07-20T11:42:05;29.60;63.90
44277;DHT22;29973;43.742;1.236;2023-07-20T11:44:35;30.90;64.20
44277;DHT22;29973;43.742;1.236;2023-07-20T11:47:09;32.00;55.20
44277;DHT22;29973;43.742;1.236;2023-07-20T11:49:37;32.50;53.60
44277;DHT22;29973;43.742;1.236;2023-07-20T11:52:15;32.80;50.30
44277;DHT22;29973;43.742;1.236;2023-07-20T11:54:43;32.00;50.40
44277;DHT22;29973;43.742;1.236;2023-07-20T11:57:19;33.30;52.10
44277;DHT22;29973;43.742;1.236;2023-07-20T12:00:00;34.30;49.80
44277;DHT22;29973;43.742;1.236;2023-07-20T12:02:27;34.10;46.20
44277;DHT22;29973;43.742;1.236;2023-07-20T12:04:57;33.70;51.10
44277;DHT22;29973;43.742;1.236;2023-07-20T12:07:25;34.10;50.60
44277;DHT22;29973;43.742;1.236;2023-07-20T12:10:08;34.80;45.30
44277;DHT22;29973;43.742;1.236;2023-07-20T12:12:44;35.20;43.10
44277;DHT22;29973;43.742;1.236;2023-07-20T12:15:20;36.20;41.40
44277;DHT22;29973;43.742;1.236;2023-07-20T12:17:51;34.50;43.70
44277;DHT22;29973;43.742;1.236;2023-07-20T12:20:33;35.60;46.30
44277;DHT22;29973;43.742;1.236;2023-07-20T12:23:11;36.50;42.10
44277;DHT22;29973;43.742;1.236;2023-07-20T12:25:42;36.70;39.30
44277;DHT22;29973;43.742;1.236;2023-07-20T12:28:11;36.60;44.80
44277;DHT22;29973;43.742;1.236;2023-07-20T12:30:38;38.20;41.70
44277;DHT22;29973;43.742;1.236;2023-07-20T12:33:04;36.90;41.00
44277;DHT22;29973;43.742;1.236;2023-07-20T12:35:30;34.50;41.30
44277;DHT22;29973;43.742;1.236;2023-07-20T12:38:02;33.70;47.00
44277;DHT22;29973;43.742;1.236;2023-07-20T12:40:30;32.20;48.70
44277;DHT22;29973;43.742;1.236;2023-07-20T12:42:56;33.30;51.30
44277;DHT22;29973;43.742;1.236;2023-07-20T12:45:24;36.50;41.50
44277;DHT22;29973;43.742;1.236;2023-07-20T12:47:54;35.20;40.60
44277;DHT22;29973;43.742;1.236;2023-07-20T12:50:26;35.40;45.90
44277;DHT22;29973;43.742;1.236;2023-07-20T12:52:56;36.10;41.00
44277;DHT22;29973;43.742;1.236;2023-07-20T12:55:26;37.30;39.10
44277;DHT22;29973;43.742;1.236;2023-07-20T12:57:54;35.90;40.50
44277;DHT22;29973;43.742;1.236;2023-07-20T13:00:19;35.10;43.30
44277;DHT22;29973;43.742;1.236;2023-07-20T13:02:45;36.90;43.20
44277;DHT22;29973;43.742;1.236;2023-07-20T13:05:11;38.10;37.10
44277;DHT22;29973;43.742;1.236;2023-07-20T13:07:38;38.20;37.80
44277;DHT22;29973;43.742;1.236;2023-07-20T13:10:05;37.50;38.10
44277;DHT22;29973;43.742;1.236;2023-07-20T13:12:33;35.80;37.40
44277;DHT22;29973;43.742;1.236;2023-07-20T13:14:58;32.80;44.60
44277;DHT22;29973;43.742;1.236;2023-07-20T13:17:28;34.00;41.70
44277;DHT22;29973;43.742;1.236;2023-07-20T13:19:55;36.80;44.30
44277;DHT22;29973;43.742;1.236;2023-07-20T13:22:22;37.80;37.20
44277;DHT22;29973;43.742;1.236;2023-07-20T13:24:49;38.30;36.90
44277;DHT22;29973;43.742;1.236;2023-07-20T13:27:19;34.30;40.90
44277;DHT22;29973;43.742;1.236;2023-07-20T13:29:45;36.10;38.30
44277;DHT22;29973;43.742;1.236;2023-07-20T13:32:15;35.00;40.50
44277;DHT22;29973;43.742;1.236;2023-07-20T13:34:43;34.60;42.60
44277;DHT22;29973;43.742;1.236;2023-07-20T13:37:10;37.50;35.50
44277;DHT22;29973;43.742;1.236;2023-07-20T13:39:37;38.50;36.90
44277;DHT22;29973;43.742;1.236;2023-07-20T13:42:03;37.00;36.20
44277;DHT22;29973;43.742;1.236;2023-07-20T13:44:31;35.80;38.30
44277;DHT22;29973;43.742;1.236;2023-07-20T13:46:57;37.20;38.30
44277;DHT22;29973;43.742;1.236;2023-07-20T13:49:23;36.90;36.10
44277;DHT22;29973;43.742;1.236;2023-07-20T13:51:49;36.90;36.30
44277;DHT22;29973;43.742;1.236;2023-07-20T13:54:15;34.90;39.30
44277;DHT22;29973;43.742;1.236;2023-07-20T13:56:40;33.40;44.50
44277;DHT22;29973;43.742;1.236;2023-07-20T13:59:07;35.20;40.90
44277;DHT22;29973;43.742;1.236;2023-07-20T14:01:32;36.40;39.70
44277;DHT22;29973;43.742;1.236;2023-07-20T14:04:00;38.60;37.00
44277;DHT22;29973;43.742;1.236;2023-07-20T14:06:29;40.20;33.30
44277;DHT22;29973;43.742;1.236;2023-07-20T14:08:54;41.40;29.30
44277;DHT22;29973;43.742;1.236;2023-07-20T14:11:20;40.20;30.80
44277;DHT22;29973;43.742;1.236;2023-07-20T14:13:46;37.20;36.50
44277;DHT22;29973;43.742;1.236;2023-07-20T14:16:12;39.10;34.70
44277;DHT22;29973;43.742;1.236;2023-07-20T14:18:38;38.90;32.30
44277;DHT22;29973;43.742;1.236;2023-07-20T14:21:04;38.50;34.20
44277;DHT22;29973;43.742;1.236;2023-07-20T14:23:32;37.30;33.90
44277;DHT22;29973;43.742;1.236;2023-07-20T14:25:58;37.80;36.40
44277;DHT22;29973;43.742;1.236;2023-07-20T14:28:24;39.20;35.10
44277;DHT22;29973;43.742;1.236;2023-07-20T14:30:50;38.20;36.40
44277;DHT22;29973;43.742;1.236;2023-07-20T14:33:16;37.30;34.60
44277;DHT22;29973;43.742;1.236;2023-07-20T14:35:43;38.70;34.40
44277;DHT22;29973;43.742;1.236;2023-07-20T14:38:09;38.50;33.40
44277;DHT22;29973;43.742;1.236;2023-07-20T14:40:35;34.10;40.30
44277;DHT22;29973;43.742;1.236;2023-07-20T14:43:01;34.80;40.50
44277;DHT22;29973;43.742;1.236;2023-07-20T14:45:30;34.40;39.50
44277;DHT22;29973;43.742;1.236;2023-07-20T14:47:55;33.90;40.00
44277;DHT22;29973;43.742;1.236;2023-07-20T14:50:21;33.90;44.50
44277;DHT22;29973;43.742;1.236;2023-07-20T14:52:47;35.80;38.90
44277;DHT22;29973;43.742;1.236;2023-07-20T14:55:13;36.50;36.60
44277;DHT22;29973;43.742;1.236;2023-07-20T14:57:39;38.50;34.80
44277;DHT22;29973;43.742;1.236;2023-07-20T15:00:05;39.50;32.00
44277;DHT22;29973;43.742;1.236;2023-07-20T15:02:40;41.70;32.20
44277;DHT22;29973;43.742;1.236;2023-07-20T15:05:09;39.60;31.40
44277;DHT22;29973;43.742;1.236;2023-07-20T15:07:36;38.80;33.20
44277;DHT22;29973;43.742;1.236;2023-07-20T15:10:02;36.70;36.20
44277;DHT22;29973;43.742;1.236;2023-07-20T15:12:29;34.30;41.40
44277;DHT22;29973;43.742;1.236;2023-07-20T15:15:04;36.90;38.60
44277;DHT22;29973;43.742;1.236;2023-07-20T15:17:33;37.40;36.80
44277;DHT22;29973;43.742;1.236;2023-07-20T15:20:00;34.40;39.70
44277;DHT22;29973;43.742;1.236;2023-07-20T15:22:26;32.10;44.90
44277;DHT22;29973;43.742;1.236;2023-07-20T15:24:51;33.60;44.00
44277;DHT22;29973;43.742;1.236;2023-07-20T15:27:17;32.70;44.70
44277;DHT22;29973;43.742;1.236;2023-07-20T15:29:43;32.60;43.60
44277;DHT22;29973;43.742;1.236;2023-07-20T15:32:10;32.40;46.70
44277;DHT22;29973;43.742;1.236;2023-07-20T15:34:36;36.70;39.10
44277;DHT22;29973;43.742;1.236;2023-07-20T15:37:01;38.00;39.10
44277;DHT22;29973;43.742;1.236;2023-07-20T15:39:28;39.30;33.90
44277;DHT22;29973;43.742;1.236;2023-07-20T15:41:55;37.60;35.80
44277;DHT22;29973;43.742;1.236;2023-07-20T15:44:20;36.30;38.40
44277;DHT22;29973;43.742;1.236;2023-07-20T15:46:47;37.00;38.00
44277;DHT22;29973;43.742;1.236;2023-07-20T15:49:14;36.10;36.50
44277;DHT22;29973;43.742;1.236;2023-07-20T15:51:40;35.50;38.80
44277;DHT22;29973;43.742;1.236;2023-07-20T15:54:09;38.20;36.30
44277;DHT22;29973;43.742;1.236;2023-07-20T15:56:36;34.60;39.50
44277;DHT22;29973;43.742;1.236;2023-07-20T15:59:02;34.80;41.30
44277;DHT22;29973;43.742;1.236;2023-07-20T16:01:28;35.60;40.90
44277;DHT22;29973;43.742;1.236;2023-07-20T16:03:54;37.40;37.10